sensor_id;sensor_type;location;lat;lon;timestamp;P1;durP1;ratioP1;P2;durP2;ratioP2
727;SDS011;347;48.780;9.158;2022-07-06T00:01:06;16.40;;;15.80;;
727;SDS011;347;48.780;9.158;2022-07-06T00:03:32;16.50;;;15.80;;
727;SDS011;347;48.780;9.158;2022-07-06T00:05:58;16.97;;;16.30;;
727;SDS011;347;48.780;9.158;2022-07-06T00:08:27;17.57;;;16.10;;
727;SDS011;347;48.780;9.158;2022-07-06T00:10:53;16.90;;;16.10;;
727;SDS011;347;48.780;9.158;2022-07-06T00:13:19;15.93;;;15.27;;
727;SDS011;347;48.780;9.158;2022-07-06T00:15:45;16.10;;;15.50;;
727;SDS011;347;48.780;9.158;2022-07-06T00:18:11;16.47;;;15.87;;
727;SDS011;347;48.780;9.158;2022-07-06T00:20:37;16.70;;;15.97;;
727;SDS011;347;48.780;9.158;2022-07-06T00:23:03;17.63;;;15.80;;
727;SDS011;347;48.780;9.158;2022-07-06T00:25:29;16.00;;;15.30;;
727;SDS011;347;48.780;9.158;2022-07-06T00:27:55;16.70;;;15.93;;
727;SDS011;347;48.780;9.158;2022-07-06T00:30:21;15.80;;;15.10;;
727;SDS011;347;48.780;9.158;2022-07-06T00:32:48;16.40;;;15.70;;
727;SDS011;347;48.780;9.158;2022-07-06T00:35:13;17.10;;;16.20;;
727;SDS011;347;48.780;9.158;2022-07-06T00:37:39;16.47;;;15.77;;
727;SDS011;347;48.780;9.158;2022-07-06T00:40:06;16.20;;;15.50;;
727;SDS011;347;48.780;9.158;2022-07-06T00:42:42;16.40;;;15.80;;
727;SDS011;347;48.780;9.158;2022-07-06T00:45:09;16.80;;;16.10;;
727;SDS011;347;48.780;9.158;2022-07-06T00:47:36;16.90;;;16.20;;
727;SDS011;347;48.780;9.158;2022-07-06T00:50:03;16.60;;;15.73;;
727;SDS011;347;48.780;9.158;2022-07-06T00:52:39;17.33;;;16.33;;
727;SDS011;347;48.780;9.158;2022-07-06T00:55:16;16.93;;;16.20;;
727;SDS011;347;48.780;9.158;2022-07-06T00:57:44;17.20;;;16.40;;
727;SDS011;347;48.780;9.158;2022-07-06T01:00:11;17.57;;;16.77;;
727;SDS011;347;48.780;9.158;2022-07-06T01:02:48;16.77;;;16.17;;
727;SDS011;347;48.780;9.158;2022-07-06T01:05:14;16.80;;;16.10;;
727;SDS011;347;48.780;9.158;2022-07-06T01:07:41;16.93;;;16.23;;
727;SDS011;347;48.780;9.158;2022-07-06T01:10:11;17.20;;;16.40;;
727;SDS011;347;48.780;9.158;2022-07-06T01:12:39;17.70;;;16.90;;
727;SDS011;347;48.780;9.158;2022-07-06T01:15:10;16.47;;;15.60;;
727;SDS011;347;48.780;9.158;2022-07-06T01:17:46;17.20;;;16.50;;
727;SDS011;347;48.780;9.158;2022-07-06T01:20:16;16.73;;;16.00;;
727;SDS011;347;48.780;9.158;2022-07-06T01:22:43;17.57;;;16.50;;
727;SDS011;347;48.780;9.158;2022-07-06T01:25:11;16.90;;;16.17;;
727;SDS011;347;48.780;9.158;2022-07-06T01:27:41;16.50;;;15.80;;
727;SDS011;347;48.780;9.158;2022-07-06T01:30:08;16.37;;;15.67;;
727;SDS011;347;48.780;9.158;2022-07-06T01:32:36;16.10;;;15.30;;
727;SDS011;347;48.780;9.158;2022-07-06T01:35:06;16.70;;;15.90;;
727;SDS011;347;48.780;9.158;2022-07-06T01:37:35;16.50;;;15.90;;
727;SDS011;347;48.780;9.158;2022-07-06T01:40:02;17.73;;;16.67;;
727;SDS011;347;48.780;9.158;2022-07-06T01:42:30;16.30;;;15.70;;
727;SDS011;347;48.780;9.158;2022-07-06T01:44:56;16.43;;;15.63;;
727;SDS011;347;48.780;9.158;2022-07-06T01:47:22;16.43;;;15.53;;
727;SDS011;347;48.780;9.158;2022-07-06T01:49:48;16.90;;;16.30;;
727;SDS011;347;48.780;9.158;2022-07-06T01:52:14;16.97;;;16.17;;
727;SDS011;347;48.780;9.158;2022-07-06T01:54:41;16.93;;;16.00;;
727;SDS011;347;48.780;9.158;2022-07-06T01:57:07;16.27;;;15.57;;
727;SDS011;347;48.780;9.158;2022-07-06T01:59:33;16.67;;;15.83;;
727;SDS011;347;48.780;9.158;2022-07-06T02:02:00;16.70;;;16.00;;
727;SDS011;347;48.780;9.158;2022-07-06T02:04:26;17.30;;;16.60;;
727;SDS011;347;48.780;9.158;2022-07-06T02:06:52;17.70;;;17.03;;
727;SDS011;347;48.780;9.158;2022-07-06T02:09:18;17.53;;;16.63;;
727;SDS011;347;48.780;9.158;2022-07-06T02:11:44;16.73;;;15.90;;
727;SDS011;347;48.780;9.158;2022-07-06T02:14:10;17.70;;;16.80;;
727;SDS011;347;48.780;9.158;2022-07-06T02:16:36;17.13;;;16.53;;
727;SDS011;347;48.780;9.158;2022-07-06T02:19:02;17.60;;;16.90;;
727;SDS011;347;48.780;9.158;2022-07-06T02:21:28;17.23;;;16.47;;
727;SDS011;347;48.780;9.158;2022-07-06T02:23:54;17.90;;;16.87;;
727;SDS011;347;48.780;9.158;2022-07-06T02:26:25;17.77;;;17.07;;
727;SDS011;347;48.780;9.158;2022-07-06T02:28:51;17.00;;;16.20;;
727;SDS011;347;48.780;9.158;2022-07-06T02:31:17;17.63;;;16.93;;
727;SDS011;347;48.780;9.158;2022-07-06T02:33:43;17.27;;;16.67;;
727;SDS011;347;48.780;9.158;2022-07-06T02:36:09;17.80;;;17.10;;
727;SDS011;347;48.780;9.158;2022-07-06T02:38:34;17.50;;;16.90;;
727;SDS011;347;48.780;9.158;2022-07-06T02:41:00;18.10;;;17.40;;
727;SDS011;347;48.780;9.158;2022-07-06T02:43:26;17.60;;;16.80;;
727;SDS011;347;48.780;9.158;2022-07-06T02:45:52;17.73;;;17.03;;
727;SDS011;347;48.780;9.158;2022-07-06T02:48:18;17.80;;;16.70;;
727;SDS011;347;48.780;9.158;2022-07-06T02:50:46;17.07;;;16.37;;
727;SDS011;347;48.780;9.158;2022-07-06T02:53:12;18.27;;;17.40;;
727;SDS011;347;48.780;9.158;2022-07-06T02:55:38;18.27;;;17.57;;
727;SDS011;347;48.780;9.158;2022-07-06T02:58:04;17.80;;;17.03;;
727;SDS011;347;48.780;9.158;2022-07-06T03:00:30;17.77;;;17.17;;
727;SDS011;347;48.780;9.158;2022-07-06T03:02:56;18.57;;;17.67;;
727;SDS011;347;48.780;9.158;2022-07-06T03:05:22;18.90;;;18.20;;
727;SDS011;347;48.780;9.158;2022-07-06T03:07:48;19.97;;;18.73;;
727;SDS011;347;48.780;9.158;2022-07-06T03:10:14;19.80;;;18.60;;
727;SDS011;347;48.780;9.158;2022-07-06T03:12:40;19.20;;;18.40;;
727;SDS011;347;48.780;9.158;2022-07-06T03:15:06;18.00;;;17.20;;
727;SDS011;347;48.780;9.158;2022-07-06T03:17:34;19.37;;;18.47;;
727;SDS011;347;48.780;9.158;2022-07-06T03:20:01;18.50;;;17.60;;
727;SDS011;347;48.780;9.158;2022-07-06T03:22:27;17.87;;;17.17;;
727;SDS011;347;48.780;9.158;2022-07-06T03:24:53;19.77;;;19.00;;
727;SDS011;347;48.780;9.158;2022-07-06T03:27:18;19.30;;;18.50;;
727;SDS011;347;48.780;9.158;2022-07-06T03:29:44;18.50;;;17.80;;
727;SDS011;347;48.780;9.158;2022-07-06T03:32:10;19.37;;;18.67;;
727;SDS011;347;48.780;9.158;2022-07-06T03:34:36;21.10;;;20.20;;
727;SDS011;347;48.780;9.158;2022-07-06T03:37:02;19.90;;;19.10;;
727;SDS011;347;48.780;9.158;2022-07-06T03:39:28;19.07;;;18.33;;
727;SDS011;347;48.780;9.158;2022-07-06T03:41:54;20.33;;;19.43;;
727;SDS011;347;48.780;9.158;2022-07-06T03:44:20;20.30;;;19.40;;
727;SDS011;347;48.780;9.158;2022-07-06T03:46:47;20.13;;;19.00;;
727;SDS011;347;48.780;9.158;2022-07-06T03:49:13;20.60;;;19.60;;
727;SDS011;347;48.780;9.158;2022-07-06T03:51:39;20.83;;;20.00;;
727;SDS011;347;48.780;9.158;2022-07-06T03:54:05;20.97;;;20.10;;
727;SDS011;347;48.780;9.158;2022-07-06T03:56:31;20.93;;;20.03;;
727;SDS011;347;48.780;9.158;2022-07-06T03:59:01;20.57;;;19.67;;
727;SDS011;347;48.780;9.158;2022-07-06T04:01:28;20.70;;;19.90;;
727;SDS011;347;48.780;9.158;2022-07-06T04:03:55;21.53;;;20.53;;
727;SDS011;347;48.780;9.158;2022-07-06T04:06:21;20.90;;;20.00;;
727;SDS011;347;48.780;9.158;2022-07-06T04:08:48;20.40;;;19.40;;
727;SDS011;347;48.780;9.158;2022-07-06T04:11:14;21.20;;;20.20;;
727;SDS011;347;48.780;9.158;2022-07-06T04:13:40;20.93;;;20.03;;
727;SDS011;347;48.780;9.158;2022-07-06T04:16:06;19.23;;;18.50;;
727;SDS011;347;48.780;9.158;2022-07-06T04:18:33;21.23;;;20.13;;
727;SDS011;347;48.780;9.158;2022-07-06T04:20:59;20.60;;;19.70;;
727;SDS011;347;48.780;9.158;2022-07-06T04:23:25;22.00;;;21.07;;
727;SDS011;347;48.780;9.158;2022-07-06T04:25:51;21.80;;;20.90;;
727;SDS011;347;48.780;9.158;2022-07-06T04:28:17;21.30;;;20.30;;
727;SDS011;347;48.780;9.158;2022-07-06T04:30:42;21.70;;;20.70;;
727;SDS011;347;48.780;9.158;2022-07-06T04:33:08;21.33;;;20.10;;
727;SDS011;347;48.780;9.158;2022-07-06T04:35:34;22.53;;;21.47;;
727;SDS011;347;48.780;9.158;2022-07-06T04:38:00;21.40;;;20.40;;
727;SDS011;347;48.780;9.158;2022-07-06T04:40:26;21.50;;;20.40;;
727;SDS011;347;48.780;9.158;2022-07-06T04:42:52;20.73;;;19.83;;
727;SDS011;347;48.780;9.158;2022-07-06T04:45:18;20.23;;;19.43;;
727;SDS011;347;48.780;9.158;2022-07-06T04:47:44;21.37;;;20.40;;
727;SDS011;347;48.780;9.158;2022-07-06T04:50:10;20.50;;;19.70;;
727;SDS011;347;48.780;9.158;2022-07-06T04:52:37;21.40;;;20.50;;
727;SDS011;347;48.780;9.158;2022-07-06T04:55:03;21.83;;;20.93;;
727;SDS011;347;48.780;9.158;2022-07-06T04:57:31;22.07;;;21.00;;
727;SDS011;347;48.780;9.158;2022-07-06T04:59:57;21.40;;;20.30;;
727;SDS011;347;48.780;9.158;2022-07-06T05:02:23;21.60;;;20.70;;
727;SDS011;347;48.780;9.158;2022-07-06T05:04:48;22.10;;;20.80;;
727;SDS011;347;48.780;9.158;2022-07-06T05:07:14;22.63;;;21.33;;
727;SDS011;347;48.780;9.158;2022-07-06T05:09:40;21.60;;;20.47;;
727;SDS011;347;48.780;9.158;2022-07-06T05:12:06;22.47;;;21.47;;
727;SDS011;347;48.780;9.158;2022-07-06T05:14:33;23.03;;;21.93;;
727;SDS011;347;48.780;9.158;2022-07-06T05:17:05;21.77;;;20.90;;
727;SDS011;347;48.780;9.158;2022-07-06T05:19:31;22.77;;;21.87;;
727;SDS011;347;48.780;9.158;2022-07-06T05:21:57;22.03;;;20.80;;
727;SDS011;347;48.780;9.158;2022-07-06T05:24:22;22.67;;;21.67;;
727;SDS011;347;48.780;9.158;2022-07-06T05:26:48;22.10;;;21.10;;
727;SDS011;347;48.780;9.158;2022-07-06T05:29:14;22.53;;;21.30;;
727;SDS011;347;48.780;9.158;2022-07-06T05:31:40;23.90;;;22.73;;
727;SDS011;347;48.780;9.158;2022-07-06T05:34:05;22.23;;;21.00;;
727;SDS011;347;48.780;9.158;2022-07-06T05:36:31;22.37;;;21.47;;
727;SDS011;347;48.780;9.158;2022-07-06T05:38:57;22.50;;;21.30;;
727;SDS011;347;48.780;9.158;2022-07-06T05:41:23;22.93;;;21.97;;
727;SDS011;347;48.780;9.158;2022-07-06T05:43:48;23.20;;;22.20;;
727;SDS011;347;48.780;9.158;2022-07-06T05:46:14;22.90;;;21.90;;
727;SDS011;347;48.780;9.158;2022-07-06T05:48:40;21.87;;;20.80;;
727;SDS011;347;48.780;9.158;2022-07-06T05:51:24;22.70;;;21.50;;
727;SDS011;347;48.780;9.158;2022-07-06T05:53:50;22.83;;;21.83;;
727;SDS011;347;48.780;9.158;2022-07-06T05:56:15;24.20;;;22.80;;
727;SDS011;347;48.780;9.158;2022-07-06T05:58:41;23.13;;;22.00;;
727;SDS011;347;48.780;9.158;2022-07-06T06:01:07;22.03;;;21.03;;
727;SDS011;347;48.780;9.158;2022-07-06T06:03:33;22.70;;;21.70;;
727;SDS011;347;48.780;9.158;2022-07-06T06:05:59;22.00;;;21.00;;
727;SDS011;347;48.780;9.158;2022-07-06T06:08:25;22.17;;;21.17;;
727;SDS011;347;48.780;9.158;2022-07-06T06:10:52;22.53;;;21.40;;
727;SDS011;347;48.780;9.158;2022-07-06T06:13:18;21.93;;;21.03;;
727;SDS011;347;48.780;9.158;2022-07-06T06:15:43;21.90;;;21.00;;
727;SDS011;347;48.780;9.158;2022-07-06T06:18:09;21.73;;;20.83;;
727;SDS011;347;48.780;9.158;2022-07-06T06:20:36;21.97;;;21.07;;
727;SDS011;347;48.780;9.158;2022-07-06T06:23:02;23.67;;;22.27;;
727;SDS011;347;48.780;9.158;2022-07-06T06:25:33;22.30;;;21.30;;
727;SDS011;347;48.780;9.158;2022-07-06T06:28:01;21.73;;;20.83;;
727;SDS011;347;48.780;9.158;2022-07-06T06:30:29;21.27;;;20.47;;
727;SDS011;347;48.780;9.158;2022-07-06T06:33:07;22.90;;;21.70;;
727;SDS011;347;48.780;9.158;2022-07-06T06:35:42;22.10;;;20.50;;
727;SDS011;347;48.780;9.158;2022-07-06T06:38:09;21.20;;;20.30;;
727;SDS011;347;48.780;9.158;2022-07-06T06:40:34;21.90;;;21.00;;
727;SDS011;347;48.780;9.158;2022-07-06T06:43:00;21.17;;;20.37;;
727;SDS011;347;48.780;9.158;2022-07-06T06:45:26;21.83;;;20.93;;
727;SDS011;347;48.780;9.158;2022-07-06T06:47:52;21.77;;;20.60;;
727;SDS011;347;48.780;9.158;2022-07-06T06:50:17;21.17;;;20.07;;
727;SDS011;347;48.780;9.158;2022-07-06T06:52:43;20.67;;;19.77;;
727;SDS011;347;48.780;9.158;2022-07-06T06:55:12;20.97;;;20.07;;
727;SDS011;347;48.780;9.158;2022-07-06T06:57:38;21.90;;;20.80;;
727;SDS011;347;48.780;9.158;2022-07-06T07:00:04;22.10;;;20.70;;
727;SDS011;347;48.780;9.158;2022-07-06T07:02:30;22.07;;;21.17;;
727;SDS011;347;48.780;9.158;2022-07-06T07:04:56;21.90;;;21.00;;
727;SDS011;347;48.780;9.158;2022-07-06T07:07:21;20.30;;;19.50;;
727;SDS011;347;48.780;9.158;2022-07-06T07:09:47;21.73;;;20.73;;
727;SDS011;347;48.780;9.158;2022-07-06T07:12:13;20.23;;;19.43;;
727;SDS011;347;48.780;9.158;2022-07-06T07:14:40;21.33;;;20.40;;
727;SDS011;347;48.780;9.158;2022-07-06T07:17:06;21.70;;;20.40;;
727;SDS011;347;48.780;9.158;2022-07-06T07:19:31;20.00;;;19.10;;
727;SDS011;347;48.780;9.158;2022-07-06T07:21:57;20.93;;;19.70;;
727;SDS011;347;48.780;9.158;2022-07-06T07:24:23;21.60;;;20.60;;
727;SDS011;347;48.780;9.158;2022-07-06T07:26:49;20.23;;;19.27;;
727;SDS011;347;48.780;9.158;2022-07-06T07:29:14;21.80;;;20.80;;
727;SDS011;347;48.780;9.158;2022-07-06T07:31:40;20.33;;;19.20;;
727;SDS011;347;48.780;9.158;2022-07-06T07:34:06;19.70;;;18.80;;
727;SDS011;347;48.780;9.158;2022-07-06T07:36:32;20.87;;;19.80;;
727;SDS011;347;48.780;9.158;2022-07-06T07:38:58;20.97;;;20.17;;
727;SDS011;347;48.780;9.158;2022-07-06T07:41:24;20.17;;;19.27;;
727;SDS011;347;48.780;9.158;2022-07-06T07:43:49;19.43;;;18.63;;
727;SDS011;347;48.780;9.158;2022-07-06T07:46:15;20.80;;;19.80;;
727;SDS011;347;48.780;9.158;2022-07-06T07:48:41;19.97;;;18.97;;
727;SDS011;347;48.780;9.158;2022-07-06T07:51:06;20.30;;;19.50;;
727;SDS011;347;48.780;9.158;2022-07-06T07:53:32;20.43;;;19.60;;
727;SDS011;347;48.780;9.158;2022-07-06T07:55:59;20.93;;;19.93;;
727;SDS011;347;48.780;9.158;2022-07-06T07:58:25;19.80;;;19.00;;
727;SDS011;347;48.780;9.158;2022-07-06T08:00:52;20.90;;;19.83;;
727;SDS011;347;48.780;9.158;2022-07-06T08:03:18;21.27;;;20.27;;
727;SDS011;347;48.780;9.158;2022-07-06T08:08:47;19.50;;;18.70;;
727;SDS011;347;48.780;9.158;2022-07-06T08:11:12;21.13;;;19.93;;
727;SDS011;347;48.780;9.158;2022-07-06T08:13:38;20.03;;;19.10;;
727;SDS011;347;48.780;9.158;2022-07-06T08:16:04;21.37;;;20.13;;
727;SDS011;347;48.780;9.158;2022-07-06T08:18:29;19.17;;;18.47;;
727;SDS011;347;48.780;9.158;2022-07-06T08:20:55;20.33;;;19.30;;
727;SDS011;347;48.780;9.158;2022-07-06T08:23:22;19.63;;;18.83;;
727;SDS011;347;48.780;9.158;2022-07-06T08:25:48;20.90;;;19.90;;
727;SDS011;347;48.780;9.158;2022-07-06T08:28:14;20.47;;;19.10;;
727;SDS011;347;48.780;9.158;2022-07-06T08:30:40;20.70;;;19.80;;
727;SDS011;347;48.780;9.158;2022-07-06T08:33:07;21.80;;;20.50;;
727;SDS011;347;48.780;9.158;2022-07-06T08:35:32;20.53;;;19.53;;
727;SDS011;347;48.780;9.158;2022-07-06T08:37:58;20.80;;;19.90;;
727;SDS011;347;48.780;9.158;2022-07-06T08:40:24;21.50;;;20.30;;
727;SDS011;347;48.780;9.158;2022-07-06T08:42:56;19.70;;;18.80;;
727;SDS011;347;48.780;9.158;2022-07-06T08:45:24;21.93;;;20.50;;
727;SDS011;347;48.780;9.158;2022-07-06T08:47:51;21.40;;;20.23;;
727;SDS011;347;48.780;9.158;2022-07-06T08:50:19;21.30;;;20.13;;
727;SDS011;347;48.780;9.158;2022-07-06T08:52:47;20.57;;;19.30;;
727;SDS011;347;48.780;9.158;2022-07-06T08:55:13;21.47;;;20.37;;
727;SDS011;347;48.780;9.158;2022-07-06T08:57:40;20.87;;;19.83;;
727;SDS011;347;48.780;9.158;2022-07-06T09:00:07;22.03;;;20.70;;
727;SDS011;347;48.780;9.158;2022-07-06T09:02:33;21.03;;;19.80;;
727;SDS011;347;48.780;9.158;2022-07-06T09:05:01;21.37;;;20.40;;
727;SDS011;347;48.780;9.158;2022-07-06T09:07:28;24.70;;;22.20;;
727;SDS011;347;48.780;9.158;2022-07-06T09:09:55;21.70;;;20.00;;
727;SDS011;347;48.780;9.158;2022-07-06T09:12:22;20.67;;;19.87;;
727;SDS011;347;48.780;9.158;2022-07-06T09:14:54;21.10;;;20.13;;
727;SDS011;347;48.780;9.158;2022-07-06T09:17:23;19.70;;;18.90;;
727;SDS011;347;48.780;9.158;2022-07-06T09:19:52;20.53;;;19.20;;
727;SDS011;347;48.780;9.158;2022-07-06T09:22:28;19.90;;;19.00;;
727;SDS011;347;48.780;9.158;2022-07-06T09:25:10;20.37;;;18.87;;
727;SDS011;347;48.780;9.158;2022-07-06T09:27:41;19.13;;;18.13;;
727;SDS011;347;48.780;9.158;2022-07-06T09:30:14;21.00;;;19.90;;
727;SDS011;347;48.780;9.158;2022-07-06T09:32:41;21.07;;;19.93;;
727;SDS011;347;48.780;9.158;2022-07-06T09:35:31;21.17;;;19.87;;
727;SDS011;347;48.780;9.158;2022-07-06T09:38:06;20.17;;;19.00;;
727;SDS011;347;48.780;9.158;2022-07-06T09:40:33;20.33;;;19.33;;
727;SDS011;347;48.780;9.158;2022-07-06T09:45:58;20.30;;;19.50;;
727;SDS011;347;48.780;9.158;2022-07-06T09:48:25;21.00;;;20.10;;
727;SDS011;347;48.780;9.158;2022-07-06T09:50:59;21.40;;;20.17;;
727;SDS011;347;48.780;9.158;2022-07-06T09:53:28;20.27;;;19.47;;
727;SDS011;347;48.780;9.158;2022-07-06T09:55:55;20.93;;;20.03;;
727;SDS011;347;48.780;9.158;2022-07-06T09:58:23;20.10;;;19.10;;
727;SDS011;347;48.780;9.158;2022-07-06T10:00:49;19.53;;;18.73;;
727;SDS011;347;48.780;9.158;2022-07-06T10:03:16;19.83;;;19.03;;
727;SDS011;347;48.780;9.158;2022-07-06T10:05:43;20.90;;;19.90;;
727;SDS011;347;48.780;9.158;2022-07-06T10:08:15;20.03;;;19.13;;
727;SDS011;347;48.780;9.158;2022-07-06T10:10:42;19.90;;;18.70;;
727;SDS011;347;48.780;9.158;2022-07-06T10:13:13;20.10;;;19.20;;
727;SDS011;347;48.780;9.158;2022-07-06T10:15:45;19.87;;;18.87;;
727;SDS011;347;48.780;9.158;2022-07-06T10:18:11;20.93;;;20.03;;
727;SDS011;347;48.780;9.158;2022-07-06T10:20:37;20.10;;;19.00;;
727;SDS011;347;48.780;9.158;2022-07-06T10:23:06;19.57;;;18.77;;
727;SDS011;347;48.780;9.158;2022-07-06T10:25:33;21.10;;;19.90;;
727;SDS011;347;48.780;9.158;2022-07-06T10:28:00;19.90;;;19.10;;
727;SDS011;347;48.780;9.158;2022-07-06T10:30:26;20.67;;;19.57;;
727;SDS011;347;48.780;9.158;2022-07-06T10:32:53;20.97;;;19.90;;
727;SDS011;347;48.780;9.158;2022-07-06T10:35:21;21.53;;;20.43;;
727;SDS011;347;48.780;9.158;2022-07-06T10:38:03;20.70;;;19.70;;
727;SDS011;347;48.780;9.158;2022-07-06T10:40:37;20.90;;;20.00;;
727;SDS011;347;48.780;9.158;2022-07-06T10:43:23;20.67;;;19.40;;
727;SDS011;347;48.780;9.158;2022-07-06T10:46:12;20.33;;;19.27;;
727;SDS011;347;48.780;9.158;2022-07-06T10:48:44;21.20;;;19.93;;
727;SDS011;347;48.780;9.158;2022-07-06T10:51:11;19.47;;;18.67;;
727;SDS011;347;48.780;9.158;2022-07-06T10:53:49;20.63;;;19.60;;
727;SDS011;347;48.780;9.158;2022-07-06T10:56:32;21.60;;;20.40;;
727;SDS011;347;48.780;9.158;2022-07-06T10:59:02;21.53;;;20.37;;
727;SDS011;347;48.780;9.158;2022-07-06T11:01:34;20.37;;;19.47;;
727;SDS011;347;48.780;9.158;2022-07-06T11:06:27;22.03;;;20.60;;
727;SDS011;347;48.780;9.158;2022-07-06T11:09:00;21.37;;;20.30;;
727;SDS011;347;48.780;9.158;2022-07-06T11:19:23;19.90;;;19.00;;
727;SDS011;347;48.780;9.158;2022-07-06T11:21:51;19.73;;;18.93;;
727;SDS011;347;48.780;9.158;2022-07-06T11:24:28;19.47;;;18.43;;
727;SDS011;347;48.780;9.158;2022-07-06T11:26:55;21.33;;;20.00;;
727;SDS011;347;48.780;9.158;2022-07-06T11:29:23;19.50;;;18.70;;
727;SDS011;347;48.780;9.158;2022-07-06T11:31:51;20.20;;;19.20;;
727;SDS011;347;48.780;9.158;2022-07-06T11:34:25;20.50;;;19.60;;
727;SDS011;347;48.780;9.158;2022-07-06T11:37:12;20.30;;;19.40;;
727;SDS011;347;48.780;9.158;2022-07-06T11:39:39;19.43;;;18.30;;
727;SDS011;347;48.780;9.158;2022-07-06T11:42:07;19.50;;;18.60;;
727;SDS011;347;48.780;9.158;2022-07-06T11:44:36;19.20;;;18.30;;
727;SDS011;347;48.780;9.158;2022-07-06T11:47:03;19.53;;;18.50;;
727;SDS011;347;48.780;9.158;2022-07-06T11:49:31;20.03;;;19.13;;
727;SDS011;347;48.780;9.158;2022-07-06T11:52:10;19.27;;;18.47;;
727;SDS011;347;48.780;9.158;2022-07-06T11:54:37;20.13;;;19.30;;
727;SDS011;347;48.780;9.158;2022-07-06T11:57:10;20.87;;;20.07;;
727;SDS011;347;48.780;9.158;2022-07-06T11:59:37;20.87;;;19.97;;
727;SDS011;347;48.780;9.158;2022-07-06T12:04:32;20.80;;;19.90;;
727;SDS011;347;48.780;9.158;2022-07-06T12:06:59;21.73;;;20.07;;
727;SDS011;347;48.780;9.158;2022-07-06T12:09:29;20.00;;;19.20;;
727;SDS011;347;48.780;9.158;2022-07-06T12:11:59;21.30;;;20.00;;
727;SDS011;347;48.780;9.158;2022-07-06T12:14:28;21.27;;;20.00;;
727;SDS011;347;48.780;9.158;2022-07-06T12:17:06;20.40;;;19.30;;
727;SDS011;347;48.780;9.158;2022-07-06T12:19:36;21.50;;;20.20;;
727;SDS011;347;48.780;9.158;2022-07-06T12:22:03;21.90;;;20.90;;
727;SDS011;347;48.780;9.158;2022-07-06T12:24:30;22.20;;;20.70;;
727;SDS011;347;48.780;9.158;2022-07-06T12:26:58;21.67;;;20.50;;
727;SDS011;347;48.780;9.158;2022-07-06T12:29:37;20.80;;;19.40;;
727;SDS011;347;48.780;9.158;2022-07-06T12:32:03;21.13;;;19.90;;
727;SDS011;347;48.780;9.158;2022-07-06T12:34:31;20.07;;;18.90;;
727;SDS011;347;48.780;9.158;2022-07-06T12:37:05;20.33;;;19.43;;
727;SDS011;347;48.780;9.158;2022-07-06T12:39:40;21.20;;;20.20;;
727;SDS011;347;48.780;9.158;2022-07-06T12:42:13;20.17;;;19.17;;
727;SDS011;347;48.780;9.158;2022-07-06T12:44:46;20.57;;;19.57;;
727;SDS011;347;48.780;9.158;2022-07-06T12:47:16;21.33;;;20.20;;
727;SDS011;347;48.780;9.158;2022-07-06T12:49:43;20.30;;;19.30;;
727;SDS011;347;48.780;9.158;2022-07-06T12:52:10;18.73;;;17.93;;
727;SDS011;347;48.780;9.158;2022-07-06T12:54:43;19.97;;;18.87;;
727;SDS011;347;48.780;9.158;2022-07-06T12:57:20;20.50;;;19.50;;
727;SDS011;347;48.780;9.158;2022-07-06T13:02:31;19.80;;;19.00;;
727;SDS011;347;48.780;9.158;2022-07-06T13:05:07;19.23;;;18.30;;
727;SDS011;347;48.780;9.158;2022-07-06T13:07:39;19.13;;;18.10;;
727;SDS011;347;48.780;9.158;2022-07-06T13:10:10;19.20;;;18.40;;
727;SDS011;347;48.780;9.158;2022-07-06T13:12:38;19.10;;;18.30;;
727;SDS011;347;48.780;9.158;2022-07-06T13:15:04;18.27;;;17.53;;
727;SDS011;347;48.780;9.158;2022-07-06T13:17:32;19.33;;;18.40;;
727;SDS011;347;48.780;9.158;2022-07-06T13:19:59;18.47;;;17.60;;
727;SDS011;347;48.780;9.158;2022-07-06T13:22:28;19.80;;;18.83;;
727;SDS011;347;48.780;9.158;2022-07-06T13:24:54;20.50;;;19.40;;
727;SDS011;347;48.780;9.158;2022-07-06T13:27:20;19.40;;;18.60;;
727;SDS011;347;48.780;9.158;2022-07-06T13:29:46;18.97;;;18.07;;
727;SDS011;347;48.780;9.158;2022-07-06T13:32:11;19.50;;;18.50;;
727;SDS011;347;48.780;9.158;2022-07-06T13:34:38;19.43;;;18.63;;
727;SDS011;347;48.780;9.158;2022-07-06T13:37:04;19.60;;;18.67;;
727;SDS011;347;48.780;9.158;2022-07-06T13:39:30;18.83;;;17.90;;
727;SDS011;347;48.780;9.158;2022-07-06T13:41:57;19.67;;;18.63;;
727;SDS011;347;48.780;9.158;2022-07-06T13:44:23;19.67;;;18.13;;
727;SDS011;347;48.780;9.158;2022-07-06T13:46:49;19.60;;;18.80;;
727;SDS011;347;48.780;9.158;2022-07-06T13:49:15;20.93;;;19.03;;
727;SDS011;347;48.780;9.158;2022-07-06T13:51:42;19.30;;;18.50;;
727;SDS011;347;48.780;9.158;2022-07-06T13:54:08;18.93;;;18.23;;
727;SDS011;347;48.780;9.158;2022-07-06T13:56:34;19.83;;;18.77;;
727;SDS011;347;48.780;9.158;2022-07-06T13:59:01;18.53;;;17.53;;
727;SDS011;347;48.780;9.158;2022-07-06T14:01:27;18.70;;;18.00;;
727;SDS011;347;48.780;9.158;2022-07-06T14:03:53;18.70;;;17.80;;
727;SDS011;347;48.780;9.158;2022-07-06T14:06:19;18.70;;;17.80;;
727;SDS011;347;48.780;9.158;2022-07-06T14:08:45;18.47;;;17.37;;
727;SDS011;347;48.780;9.158;2022-07-06T14:11:12;19.90;;;18.70;;
727;SDS011;347;48.780;9.158;2022-07-06T14:13:38;18.77;;;18.03;;
727;SDS011;347;48.780;9.158;2022-07-06T14:16:04;18.97;;;18.27;;
727;SDS011;347;48.780;9.158;2022-07-06T14:18:31;19.10;;;17.87;;
727;SDS011;347;48.780;9.158;2022-07-06T14:20:57;17.60;;;17.00;;
727;SDS011;347;48.780;9.158;2022-07-06T14:23:23;18.07;;;17.37;;
727;SDS011;347;48.780;9.158;2022-07-06T14:25:49;18.17;;;17.30;;
727;SDS011;347;48.780;9.158;2022-07-06T14:28:15;18.70;;;17.63;;
727;SDS011;347;48.780;9.158;2022-07-06T14:30:42;18.50;;;17.80;;
727;SDS011;347;48.780;9.158;2022-07-06T14:33:10;19.73;;;18.60;;
727;SDS011;347;48.780;9.158;2022-07-06T14:35:41;18.53;;;17.83;;
727;SDS011;347;48.780;9.158;2022-07-06T14:38:08;18.20;;;17.50;;
727;SDS011;347;48.780;9.158;2022-07-06T14:40:34;18.27;;;17.57;;
727;SDS011;347;48.780;9.158;2022-07-06T14:43:01;18.03;;;17.30;;
727;SDS011;347;48.780;9.158;2022-07-06T14:45:28;17.70;;;16.90;;
727;SDS011;347;48.780;9.158;2022-07-06T14:47:54;17.47;;;16.67;;
727;SDS011;347;48.780;9.158;2022-07-06T14:50:20;18.10;;;17.10;;
727;SDS011;347;48.780;9.158;2022-07-06T14:52:48;16.50;;;15.90;;
727;SDS011;347;48.780;9.158;2022-07-06T14:55:14;16.90;;;16.27;;
727;SDS011;347;48.780;9.158;2022-07-06T14:57:40;18.13;;;17.23;;
727;SDS011;347;48.780;9.158;2022-07-06T15:00:09;18.10;;;17.23;;
727;SDS011;347;48.780;9.158;2022-07-06T15:02:36;17.83;;;16.93;;
727;SDS011;347;48.780;9.158;2022-07-06T15:05:02;17.90;;;17.10;;
727;SDS011;347;48.780;9.158;2022-07-06T15:07:28;19.00;;;18.00;;
727;SDS011;347;48.780;9.158;2022-07-06T15:09:55;17.97;;;17.00;;
727;SDS011;347;48.780;9.158;2022-07-06T15:12:21;18.67;;;17.93;;
727;SDS011;347;48.780;9.158;2022-07-06T15:14:46;17.93;;;16.80;;
727;SDS011;347;48.780;9.158;2022-07-06T15:17:12;17.77;;;16.87;;
727;SDS011;347;48.780;9.158;2022-07-06T15:19:38;17.07;;;16.37;;
727;SDS011;347;48.780;9.158;2022-07-06T15:22:04;16.97;;;16.37;;
727;SDS011;347;48.780;9.158;2022-07-06T15:24:30;18.03;;;17.30;;
727;SDS011;347;48.780;9.158;2022-07-06T15:26:56;18.53;;;17.83;;
727;SDS011;347;48.780;9.158;2022-07-06T15:29:21;19.23;;;17.77;;
727;SDS011;347;48.780;9.158;2022-07-06T15:31:50;17.17;;;16.50;;
727;SDS011;347;48.780;9.158;2022-07-06T15:34:16;18.30;;;17.50;;
727;SDS011;347;48.780;9.158;2022-07-06T15:36:44;18.70;;;17.80;;
727;SDS011;347;48.780;9.158;2022-07-06T15:39:13;18.03;;;17.33;;